Terminal Aerodrome Forecast
Issued by NWS Charleston, WV

Current Version | Previous Version | Graphics & Text | Print | Product List | Glossary On
Versions: 1 2 3 4 5 6 7 8 9 10 11 12 13 14 15 16 17 18 19 20 21 22 23 24 25 26 27 28 29 30 31 32
000
FTUS41 KRLX 010100 AAA
TAFCRW
TAF AMD
KCRW 010102Z 0101/0124 19003KT P6SM SCT030 BKN040
      TEMPO 0102/0104 1SM SHRA BR BKN015
     FM010400 VRB03KT 4SM BR BKN040
     FM011400 23004KT P6SM BKN045
     FM011700 23006KT P6SM BKN030
     FM012000 23006KT P6SM SCT035=

USA.gov is the U.S. government's official web portal to all federal, state and local government web resources and services.